createdAt,value
2022-07-26T00:00:06.168Z,23.38
2022-07-26T00:02:32.830Z,23.33
2022-07-26T00:04:59.517Z,23.36
2022-07-26T00:07:26.119Z,23.43
2022-07-26T00:09:52.679Z,23.37
2022-07-26T00:12:19.284Z,23.50
2022-07-26T00:14:45.917Z,23.56
2022-07-26T00:17:12.493Z,23.49
2022-07-26T00:19:39.396Z,23.47
2022-07-26T00:22:24.916Z,23.40
2022-07-26T00:24:51.586Z,23.28
2022-07-26T00:27:18.197Z,23.11
2022-07-26T00:29:44.882Z,23.00
2022-07-26T00:32:11.646Z,23.03
2022-07-26T00:34:38.277Z,22.96
2022-07-26T00:37:04.963Z,22.98
2022-07-26T00:39:31.550Z,22.83
2022-07-26T00:41:58.292Z,22.90
2022-07-26T00:44:24.867Z,22.77
2022-07-26T00:46:51.509Z,22.66
2022-07-26T00:49:18.174Z,22.48
2022-07-26T00:51:45.596Z,22.49
2022-07-26T00:54:13.217Z,22.52
2022-07-26T00:56:40.179Z,22.52
2022-07-26T00:59:07.023Z,22.41
2022-07-26T01:01:34.027Z,22.39
2022-07-26T01:04:00.777Z,22.37
2022-07-26T01:06:27.722Z,22.27
2022-07-26T01:08:54.832Z,22.37
2022-07-26T01:11:21.526Z,22.38
2022-07-26T01:13:51.402Z,22.46
2022-07-26T01:16:18.350Z,22.62
2022-07-26T01:18:45.103Z,22.66
2022-07-26T01:21:14.026Z,22.71
2022-07-26T01:23:41.512Z,22.69
2022-07-26T01:26:08.542Z,22.73
2022-07-26T01:28:40.248Z,22.68
2022-07-26T01:31:08.632Z,22.60
2022-07-26T01:33:35.505Z,22.62
2022-07-26T01:36:02.179Z,22.72
2022-07-26T01:38:29.310Z,22.85
2022-07-26T01:40:56.115Z,22.85
2022-07-26T01:43:22.727Z,22.76
2022-07-26T01:45:49.411Z,22.78
2022-07-26T01:48:16.233Z,22.69
2022-07-26T01:50:42.882Z,22.70
2022-07-26T01:53:09.652Z,22.81
2022-07-26T01:55:37.085Z,22.78
2022-07-26T01:58:05.562Z,22.69
2022-07-26T02:00:33.135Z,22.54
2022-07-26T02:03:00.317Z,22.58
2022-07-26T02:05:27.084Z,22.56
2022-07-26T02:07:53.759Z,22.59
2022-07-26T02:10:21.995Z,22.68
2022-07-26T02:12:48.591Z,22.51
2022-07-26T02:15:16.087Z,22.50
2022-07-26T02:17:43.345Z,22.50
2022-07-26T02:20:10.284Z,22.47
2022-07-26T02:22:36.869Z,22.51
2022-07-26T02:25:05.533Z,22.42
2022-07-26T02:27:32.860Z,22.50
2022-07-26T02:29:59.505Z,22.45
2022-07-26T02:32:26.232Z,22.38
2022-07-26T02:34:52.811Z,22.36
2022-07-26T02:37:19.479Z,22.53
2022-07-26T02:39:46.085Z,22.51
2022-07-26T02:42:12.687Z,22.50
2022-07-26T02:44:39.341Z,22.57
2022-07-26T02:47:06.005Z,22.36
2022-07-26T02:49:32.709Z,22.48
2022-07-26T02:51:59.358Z,22.46
2022-07-26T02:54:25.993Z,22.41
2022-07-26T02:56:52.578Z,22.28
2022-07-26T02:59:19.244Z,22.33
2022-07-26T03:01:45.967Z,22.31
2022-07-26T03:04:12.642Z,22.22
2022-07-26T03:06:39.290Z,22.21
2022-07-26T03:09:05.938Z,22.26
2022-07-26T03:11:32.529Z,22.19
2022-07-26T03:13:59.115Z,22.20
2022-07-26T03:16:29.416Z,22.01
2022-07-26T03:18:56.591Z,22.14
2022-07-26T03:21:23.452Z,22.17
2022-07-26T03:23:50.094Z,22.21
2022-07-26T03:26:16.816Z,22.22
2022-07-26T03:28:44.709Z,22.17
2022-07-26T03:31:14.262Z,22.28
2022-07-26T03:33:41.123Z,22.23
2022-07-26T03:36:11.478Z,22.18
2022-07-26T03:38:38.608Z,22.11
2022-07-26T03:41:05.366Z,22.09
2022-07-26T03:43:31.982Z,21.85
2022-07-26T03:46:03.267Z,21.81
2022-07-26T03:48:31.400Z,21.69
2022-07-26T03:50:58.133Z,21.36
2022-07-26T03:53:24.750Z,21.26
2022-07-26T03:56:10.127Z,21.11
2022-07-26T03:58:36.798Z,21.08
2022-07-26T04:01:04.376Z,20.98
2022-07-26T04:03:31.139Z,21.00
2022-07-26T04:05:57.931Z,20.75
2022-07-26T04:08:24.877Z,20.86
2022-07-26T04:10:51.573Z,20.92
2022-07-26T04:13:19.262Z,21.02
2022-07-26T04:15:46.084Z,21.08
2022-07-26T04:18:14.275Z,21.09
2022-07-26T04:20:41.383Z,20.88
2022-07-26T04:23:11.611Z,20.81
2022-07-26T04:25:40.813Z,20.75
2022-07-26T04:28:09.170Z,20.73
2022-07-26T04:30:36.405Z,20.80
2022-07-26T04:33:03.587Z,20.54
2022-07-26T04:35:30.326Z,20.54
2022-07-26T04:37:57.026Z,20.25
2022-07-26T04:40:24.928Z,20.43
2022-07-26T04:42:52.485Z,20.67
2022-07-26T04:45:20.048Z,20.59
2022-07-26T04:47:52.482Z,20.48
2022-07-26T04:50:21.023Z,20.61
2022-07-26T04:52:51.622Z,20.78
2022-07-26T04:55:19.078Z,20.82
2022-07-26T04:57:47.677Z,21.00
2022-07-26T05:00:23.016Z,20.94
2022-07-26T05:02:56.660Z,20.90
2022-07-26T05:05:25.278Z,20.93
2022-07-26T05:07:54.197Z,21.03
2022-07-26T05:10:22.962Z,21.19
2022-07-26T05:12:49.949Z,21.20
2022-07-26T05:15:16.985Z,21.27
2022-07-26T05:17:44.422Z,21.34
2022-07-26T05:20:14.237Z,21.20
2022-07-26T05:22:41.354Z,21.29
2022-07-26T05:25:08.629Z,21.11
2022-07-26T05:27:35.436Z,21.12
2022-07-26T05:30:02.106Z,21.14
2022-07-26T05:32:28.745Z,21.14
2022-07-26T05:34:55.602Z,21.19
2022-07-26T05:37:22.263Z,21.17
2022-07-26T05:39:48.875Z,21.36
2022-07-26T05:42:15.498Z,21.31
2022-07-26T05:44:42.632Z,21.45
2022-07-26T05:47:10.549Z,21.47
2022-07-26T05:49:40.493Z,21.59
2022-07-26T05:52:08.111Z,21.80
2022-07-26T05:54:35.102Z,21.99
2022-07-26T05:57:02.017Z,21.76
2022-07-26T05:59:28.757Z,21.75
2022-07-26T06:01:58.868Z,22.13
2022-07-26T06:04:26.787Z,22.00
2022-07-26T06:06:54.898Z,22.13
2022-07-26T06:09:24.204Z,22.25
2022-07-26T06:11:51.312Z,22.34
2022-07-26T06:14:18.521Z,22.28
2022-07-26T06:16:46.830Z,22.42
2022-07-26T06:19:13.770Z,22.34
2022-07-26T06:21:42.220Z,22.40
2022-07-26T06:24:09.111Z,22.77
2022-07-26T06:26:35.971Z,22.86
2022-07-26T06:29:04.030Z,22.99
2022-07-26T06:31:31.184Z,23.16
2022-07-26T06:33:57.850Z,22.77
2022-07-26T06:36:29.974Z,22.79
2022-07-26T06:38:57.825Z,22.67
2022-07-26T06:41:24.515Z,22.69
2022-07-26T06:43:51.194Z,22.80
2022-07-26T06:46:19.377Z,23.12
2022-07-26T06:48:47.292Z,23.25
2022-07-26T06:51:14.409Z,23.36
2022-07-26T06:53:41.049Z,23.38
2022-07-26T06:56:07.998Z,23.39
2022-07-26T06:58:34.630Z,23.25
2022-07-26T07:01:01.309Z,23.34
2022-07-26T07:03:27.938Z,23.37
2022-07-26T07:05:54.665Z,23.24
2022-07-26T07:08:23.403Z,23.43
2022-07-26T07:10:50.798Z,23.40
2022-07-26T07:13:18.033Z,23.52
2022-07-26T07:15:44.820Z,23.65
2022-07-26T07:18:11.958Z,23.47
2022-07-26T07:20:40.240Z,23.46
2022-07-26T07:23:07.801Z,23.73
2022-07-26T07:25:34.628Z,23.71
2022-07-26T07:28:01.321Z,24.17
2022-07-26T07:30:28.306Z,24.12
2022-07-26T07:32:55.820Z,24.43
2022-07-26T07:35:23.242Z,24.17
2022-07-26T07:37:52.569Z,23.98
2022-07-26T07:40:21.087Z,23.80
2022-07-26T07:42:47.736Z,24.19
2022-07-26T07:45:14.995Z,24.55
2022-07-26T07:47:41.840Z,25.21
2022-07-26T07:50:09.084Z,24.86
2022-07-26T07:52:36.122Z,24.88
2022-07-26T07:55:37.828Z,24.98
2022-07-26T07:57:49.781Z,25.18
2022-07-26T08:00:19.310Z,25.63
2022-07-26T08:02:53.623Z,25.87
2022-07-26T08:05:20.363Z,25.53
2022-07-26T08:07:48.405Z,25.86
2022-07-26T08:10:15.450Z,25.67
2022-07-26T08:12:44.298Z,25.91
2022-07-26T08:15:11.431Z,26.20
2022-07-26T08:17:41.761Z,25.80
2022-07-26T08:20:10.849Z,26.20
2022-07-26T08:22:42.732Z,26.25
2022-07-26T08:25:09.937Z,26.56
2022-07-26T08:27:40.833Z,26.71
2022-07-26T08:30:08.540Z,26.00
2022-07-26T08:32:35.784Z,26.24
2022-07-26T08:35:17.642Z,25.86
2022-07-26T08:37:46.280Z,26.31
2022-07-26T08:40:13.009Z,25.98
2022-07-26T08:42:39.979Z,26.12
2022-07-26T08:45:07.129Z,26.35
2022-07-26T08:47:37.758Z,26.39
2022-07-26T08:50:09.752Z,26.50
2022-07-26T08:52:40.015Z,27.17
2022-07-26T08:55:07.206Z,27.68
2022-07-26T08:57:34.484Z,27.94
2022-07-26T09:00:19.447Z,28.36
2022-07-26T09:02:46.671Z,28.65
2022-07-26T09:05:13.569Z,29.06
2022-07-26T09:07:40.864Z,29.32
2022-07-26T09:10:10.413Z,28.88
2022-07-26T09:12:38.062Z,29.19
2022-07-26T09:15:07.522Z,28.86
2022-07-26T09:17:40.932Z,29.09
2022-07-26T09:20:09.183Z,28.57
2022-07-26T09:22:37.685Z,28.56
2022-07-26T09:25:20.589Z,28.77
2022-07-26T09:27:47.687Z,28.71
2022-07-26T09:30:15.187Z,28.84
2022-07-26T09:32:58.960Z,29.19
2022-07-26T09:38:14.793Z,29.02
2022-07-26T09:40:41.881Z,29.05
2022-07-26T09:43:16.492Z,28.29
2022-07-26T09:46:05.336Z,28.14
2022-07-26T09:48:52.386Z,27.65
2022-07-26T09:51:40.665Z,27.20
2022-07-26T09:54:09.069Z,27.50
2022-07-26T09:56:44.846Z,27.95
2022-07-26T09:59:14.081Z,28.90
2022-07-26T10:01:40.844Z,29.38
2022-07-26T10:04:08.090Z,29.19
2022-07-26T10:06:35.083Z,29.77
2022-07-26T10:09:02.671Z,29.96
2022-07-26T10:11:35.664Z,30.06
2022-07-26T10:14:33.938Z,29.53
2022-07-26T10:17:31.030Z,29.11
2022-07-26T10:20:10.750Z,29.33
2022-07-26T10:22:47.336Z,29.12
2022-07-26T10:25:20.169Z,28.91
2022-07-26T10:28:00.029Z,29.25
2022-07-26T10:30:34.235Z,29.54
2022-07-26T10:33:10.280Z,29.53
2022-07-26T10:35:38.871Z,29.61
2022-07-26T10:38:07.046Z,29.23
2022-07-26T10:40:34.091Z,29.48
2022-07-26T10:46:20.723Z,30.42
2022-07-26T10:49:04.580Z,30.39
2022-07-26T10:51:37.064Z,29.80
2022-07-26T10:54:08.947Z,30.17
2022-07-26T10:56:36.158Z,30.48
2022-07-26T10:59:04.193Z,30.34
2022-07-26T11:01:39.557Z,30.65
2022-07-26T11:04:17.533Z,30.73
2022-07-26T11:06:45.887Z,30.61
2022-07-26T11:09:13.435Z,30.36
2022-07-26T11:11:46.471Z,30.45
2022-07-26T11:14:16.243Z,30.54
2022-07-26T11:16:45.594Z,30.43
2022-07-26T11:19:26.050Z,30.96
2022-07-26T11:22:01.156Z,31.10
2022-07-26T11:24:28.803Z,31.21
2022-07-26T11:26:57.270Z,31.52
2022-07-26T11:29:37.908Z,31.79
2022-07-26T11:32:17.991Z,32.16
2022-07-26T11:34:45.565Z,31.88
2022-07-26T11:37:12.438Z,31.59
2022-07-26T11:39:39.138Z,31.53
2022-07-26T11:42:08.297Z,31.79
2022-07-26T11:44:36.028Z,31.69
2022-07-26T11:47:20.344Z,31.85
2022-07-26T11:50:09.683Z,31.04
2022-07-26T11:52:35.264Z,30.56
2022-07-26T11:55:01.879Z,30.77
2022-07-26T11:57:32.697Z,30.34
2022-07-26T12:00:00.672Z,29.88
2022-07-26T12:02:29.088Z,30.17
2022-07-26T12:05:16.484Z,30.05
2022-07-26T12:08:00.937Z,31.13
2022-07-26T12:10:28.427Z,31.31
2022-07-26T12:13:09.943Z,32.05
2022-07-26T12:15:45.653Z,32.17
2022-07-26T12:18:21.846Z,32.53
2022-07-26T12:21:08.433Z,32.13
2022-07-26T12:23:48.154Z,31.27
2022-07-26T12:26:22.269Z,31.73
2022-07-26T12:28:48.953Z,32.62
2022-07-26T12:31:33.006Z,32.27
2022-07-26T12:33:59.854Z,31.97
2022-07-26T12:36:29.576Z,31.83
2022-07-26T12:39:00.808Z,32.34
2022-07-26T12:41:40.483Z,32.15
2022-07-26T12:44:11.995Z,32.07
2022-07-26T12:46:39.268Z,32.38
2022-07-26T12:49:06.053Z,32.34
2022-07-26T12:51:32.928Z,31.01
2022-07-26T12:53:59.615Z,31.47
2022-07-26T12:56:26.247Z,31.54
2022-07-26T12:58:54.130Z,32.20
2022-07-26T13:01:21.396Z,31.88
2022-07-26T13:03:48.121Z,31.61
2022-07-26T13:06:14.772Z,31.57
2022-07-26T13:08:41.357Z,31.52
2022-07-26T13:11:08.015Z,32.07
2022-07-26T13:13:34.622Z,32.52
2022-07-26T13:16:01.286Z,32.02
2022-07-26T13:18:27.914Z,32.35
2022-07-26T13:20:54.674Z,32.82
2022-07-26T13:23:22.112Z,33.20
2022-07-26T13:25:52.635Z,33.44
2022-07-26T13:28:19.597Z,33.31
2022-07-26T13:30:46.269Z,33.29
2022-07-26T13:33:12.946Z,33.15
2022-07-26T13:35:42.689Z,32.11
2022-07-26T13:38:09.831Z,32.36
2022-07-26T13:40:37.071Z,31.42
2022-07-26T13:43:05.002Z,30.95
2022-07-26T13:45:31.701Z,31.17
2022-07-26T13:47:59.664Z,30.39
2022-07-26T13:50:28.186Z,29.72
2022-07-26T13:52:56.389Z,30.11
2022-07-26T13:55:23.483Z,30.48
2022-07-26T13:57:57.191Z,30.76
2022-07-26T14:00:29.533Z,31.04
2022-07-26T14:02:59.241Z,31.06
2022-07-26T14:05:27.083Z,31.19
2022-07-26T14:07:54.525Z,31.66
2022-07-26T14:10:22.210Z,31.95
2022-07-26T14:12:49.506Z,31.87
2022-07-26T14:15:22.160Z,32.01
2022-07-26T14:17:50.040Z,32.47
2022-07-26T14:20:20.067Z,32.24
2022-07-26T14:22:47.459Z,32.39
2022-07-26T14:25:14.749Z,32.43
2022-07-26T14:27:41.375Z,32.72
2022-07-26T14:30:08.311Z,32.01
2022-07-26T14:32:35.006Z,31.73
2022-07-26T14:35:01.938Z,31.62
2022-07-26T14:37:44.894Z,31.37
2022-07-26T14:40:14.257Z,31.22
2022-07-26T14:42:41.053Z,31.14
2022-07-26T14:45:09.629Z,33.47
2022-07-26T14:47:36.887Z,36.58
2022-07-26T14:50:07.342Z,38.57
2022-07-26T14:52:37.235Z,41.11
2022-07-26T14:55:04.719Z,43.09
2022-07-26T14:57:31.366Z,43.72
2022-07-26T14:59:59.325Z,46.64
2022-07-26T15:02:26.740Z,46.92
2022-07-26T15:04:53.548Z,48.56
2022-07-26T15:07:20.308Z,47.60
2022-07-26T15:09:46.928Z,47.98
2022-07-26T15:12:13.640Z,50.91
2022-07-26T15:14:42.061Z,51.89
2022-07-26T15:17:08.649Z,51.95
2022-07-26T15:19:35.340Z,51.16
2022-07-26T15:22:02.174Z,46.24
2022-07-26T15:24:29.093Z,42.74
2022-07-26T15:26:55.874Z,40.56
2022-07-26T15:29:22.636Z,37.44
2022-07-26T15:31:49.447Z,37.34
2022-07-26T15:34:16.374Z,37.23
2022-07-26T15:36:43.444Z,36.73
2022-07-26T15:39:18.338Z,36.22
2022-07-26T15:41:47.291Z,37.87
2022-07-26T15:44:17.091Z,37.85
2022-07-26T15:46:48.628Z,37.11
2022-07-26T15:49:16.874Z,36.22
2022-07-26T15:51:44.397Z,36.08
2022-07-26T15:54:13.350Z,36.75
2022-07-26T15:56:41.020Z,40.85
2022-07-26T15:59:08.433Z,42.47
2022-07-26T16:01:36.704Z,42.15
2022-07-26T16:04:05.267Z,43.83
2022-07-26T16:06:33.403Z,45.37
2022-07-26T16:09:19.134Z,45.00
2022-07-26T16:11:47.103Z,46.70
2022-07-26T16:14:14.111Z,47.10
2022-07-26T16:16:40.830Z,47.35
2022-07-26T16:19:07.762Z,47.04
2022-07-26T16:21:34.744Z,46.50
2022-07-26T16:24:06.465Z,47.15
2022-07-26T16:26:33.849Z,48.30
2022-07-26T16:29:00.845Z,48.64
2022-07-26T16:31:27.766Z,48.77
2022-07-26T16:33:56.854Z,48.25
2022-07-26T16:36:23.925Z,48.23
2022-07-26T16:38:50.541Z,48.03
2022-07-26T16:41:17.340Z,48.29
2022-07-26T16:43:43.939Z,48.98
2022-07-26T16:46:10.679Z,49.78
2022-07-26T16:48:37.563Z,48.01
2022-07-26T16:51:04.816Z,48.30
2022-07-26T16:53:31.422Z,48.35
2022-07-26T16:55:58.066Z,46.90
2022-07-26T16:58:24.658Z,46.24
2022-07-26T17:00:51.317Z,44.25
2022-07-26T17:03:18.480Z,39.85
2022-07-26T17:05:46.317Z,38.62
2022-07-26T17:08:13.257Z,36.94
2022-07-26T17:10:39.981Z,36.35
2022-07-26T17:13:07.033Z,35.86
2022-07-26T17:15:33.745Z,34.96
2022-07-26T17:18:00.529Z,34.06
2022-07-26T17:20:27.371Z,33.65
2022-07-26T17:22:54.457Z,32.80
2022-07-26T17:25:21.215Z,32.45
2022-07-26T17:27:47.826Z,32.31
2022-07-26T17:30:14.637Z,31.98
2022-07-26T17:32:41.351Z,31.95
2022-07-26T17:35:09.181Z,31.58
2022-07-26T17:37:36.115Z,31.55
2022-07-26T17:40:07.814Z,31.00
2022-07-26T17:42:34.737Z,30.76
2022-07-26T17:45:01.342Z,30.59
2022-07-26T17:47:30.363Z,30.47
2022-07-26T17:50:26.347Z,29.85
2022-07-26T17:52:50.257Z,29.39
2022-07-26T17:55:18.555Z,29.43
2022-07-26T17:57:46.047Z,29.46
2022-07-26T18:00:13.600Z,28.90
2022-07-26T18:02:40.264Z,28.81
2022-07-26T18:05:07.080Z,28.59
2022-07-26T18:07:33.716Z,28.48
2022-07-26T18:10:00.281Z,27.95
2022-07-26T18:12:26.858Z,27.92
2022-07-26T18:14:53.426Z,27.89
2022-07-26T18:17:19.976Z,27.72
2022-07-26T18:19:46.640Z,27.58
2022-07-26T18:22:13.208Z,27.42
2022-07-26T18:24:39.858Z,27.24
2022-07-26T18:27:06.675Z,27.06
2022-07-26T18:29:33.302Z,27.20
2022-07-26T18:32:01.789Z,27.12
2022-07-26T18:34:28.822Z,27.08
2022-07-26T18:36:55.740Z,26.92
2022-07-26T18:39:22.446Z,26.76
2022-07-26T18:41:49.139Z,26.65
2022-07-26T18:44:15.807Z,26.59
2022-07-26T18:46:42.464Z,26.56
2022-07-26T18:49:09.942Z,26.39
2022-07-26T18:51:48.834Z,26.29
2022-07-26T18:54:16.193Z,26.07
2022-07-26T18:56:42.843Z,26.05
2022-07-26T18:59:09.923Z,25.98
2022-07-26T19:01:36.874Z,25.97
2022-07-26T19:04:06.823Z,25.92
2022-07-26T19:06:34.762Z,25.75
2022-07-26T19:09:01.488Z,25.66
2022-07-26T19:11:29.639Z,25.57
2022-07-26T19:13:56.236Z,25.62
2022-07-26T19:16:23.198Z,25.57
2022-07-26T19:18:53.825Z,25.50
2022-07-26T19:21:23.649Z,25.46
2022-07-26T19:23:50.407Z,25.38
2022-07-26T19:26:17.195Z,25.09
2022-07-26T19:28:43.810Z,25.09
2022-07-26T19:31:10.791Z,24.82
2022-07-26T19:33:37.424Z,24.60
2022-07-26T19:36:04.342Z,24.65
2022-07-26T19:38:33.072Z,24.44
2022-07-26T19:41:00.637Z,24.36
2022-07-26T19:43:27.587Z,24.30
2022-07-26T19:45:54.295Z,24.19
2022-07-26T19:48:21.183Z,24.15
2022-07-26T19:50:47.822Z,24.22
2022-07-26T19:53:14.576Z,24.29
2022-07-26T19:55:41.770Z,23.82
2022-07-26T19:58:08.564Z,23.70
2022-07-26T20:00:35.604Z,23.88
2022-07-26T20:03:02.284Z,23.75
2022-07-26T20:05:28.886Z,23.61
2022-07-26T20:07:58.144Z,23.31
2022-07-26T20:10:30.054Z,23.21
2022-07-26T20:12:58.979Z,23.18
2022-07-26T20:15:26.156Z,22.95
2022-07-26T20:17:52.899Z,22.91
2022-07-26T20:20:20.150Z,22.76
2022-07-26T20:22:47.066Z,22.74
2022-07-26T20:25:18.049Z,22.57
2022-07-26T20:27:48.344Z,22.43
2022-07-26T20:30:15.049Z,22.20
2022-07-26T20:32:41.623Z,22.12
2022-07-26T20:35:08.589Z,22.12
2022-07-26T20:37:35.706Z,22.12
2022-07-26T20:40:02.380Z,22.15
2022-07-26T20:42:28.957Z,22.29
2022-07-26T20:44:56.034Z,22.39
2022-07-26T20:47:22.947Z,22.25
2022-07-26T20:49:49.884Z,22.25
2022-07-26T20:52:16.693Z,22.54
2022-07-26T20:54:43.322Z,22.50
2022-07-26T20:57:09.901Z,22.57
2022-07-26T20:59:36.514Z,22.64
2022-07-26T21:02:03.262Z,22.53
2022-07-26T21:04:30.225Z,22.65
2022-07-26T21:06:56.776Z,22.77
2022-07-26T21:09:27.061Z,22.71
2022-07-26T21:11:54.554Z,22.70
2022-07-26T21:14:21.127Z,22.42
2022-07-26T21:16:47.941Z,22.49
2022-07-26T21:19:15.057Z,22.59
2022-07-26T21:21:41.887Z,22.65
2022-07-26T21:24:08.675Z,22.35
2022-07-26T21:26:35.312Z,22.36
2022-07-26T21:29:01.899Z,22.25
2022-07-26T21:31:28.595Z,22.19
2022-07-26T21:33:55.510Z,22.07
2022-07-26T21:36:22.427Z,22.02
2022-07-26T21:38:49.108Z,21.82
2022-07-26T21:41:15.770Z,21.71
2022-07-26T21:43:42.422Z,21.72
2022-07-26T21:46:12.624Z,21.67
2022-07-26T21:48:40.216Z,21.50
2022-07-26T21:51:07.386Z,21.37
2022-07-26T21:53:34.063Z,21.23
2022-07-26T21:56:00.665Z,21.26
2022-07-26T21:58:28.108Z,21.22
2022-07-26T22:01:06.484Z,21.15
2022-07-26T22:03:35.281Z,21.14
2022-07-26T22:06:02.010Z,21.20
2022-07-26T22:08:28.750Z,21.17
2022-07-26T22:10:55.624Z,21.16
2022-07-26T22:13:22.237Z,21.10
2022-07-26T22:15:49.037Z,21.29
2022-07-26T22:18:15.878Z,21.35
2022-07-26T22:20:44.230Z,21.59
2022-07-26T22:23:12.177Z,21.71
2022-07-26T22:25:39.457Z,21.77
2022-07-26T22:28:08.297Z,21.64
2022-07-26T22:30:35.045Z,21.57
2022-07-26T22:33:03.890Z,21.66
2022-07-26T22:35:35.984Z,21.65
2022-07-26T22:38:12.880Z,21.63
2022-07-26T22:40:41.317Z,21.77
2022-07-26T22:43:08.260Z,21.74
2022-07-26T22:45:35.797Z,21.94
2022-07-26T22:48:04.114Z,22.13
2022-07-26T22:50:31.158Z,22.14
2022-07-26T22:52:57.787Z,22.04
2022-07-26T22:55:24.578Z,22.19
2022-07-26T22:57:51.186Z,22.32
2022-07-26T23:00:19.579Z,22.23
2022-07-26T23:02:47.866Z,22.34
2022-07-26T23:05:15.836Z,22.32
2022-07-26T23:07:43.575Z,22.08
2022-07-26T23:10:15.258Z,22.18
2022-07-26T23:12:42.371Z,21.93
2022-07-26T23:15:09.902Z,21.97
2022-07-26T23:17:36.833Z,21.93
2022-07-26T23:20:06.664Z,22.02
2022-07-26T23:22:34.078Z,22.11
2022-07-26T23:25:00.728Z,21.96
2022-07-26T23:27:27.345Z,21.77
2022-07-26T23:29:54.010Z,21.91
2022-07-26T23:32:20.659Z,21.90
2022-07-26T23:34:47.262Z,21.86
2022-07-26T23:37:13.872Z,21.84
2022-07-26T23:39:40.565Z,21.89
2022-07-26T23:42:07.360Z,21.83
2022-07-26T23:44:34.333Z,21.83
2022-07-26T23:47:01.215Z,21.76
2022-07-26T23:49:27.925Z,21.65
2022-07-26T23:51:55.976Z,21.63
2022-07-26T23:54:22.877Z,21.59
2022-07-26T23:56:49.560Z,21.61
2022-07-26T23:59:16.198Z,21.53
